sensor_id;sensor_type;location;lat;lon;timestamp;pressure;altitude;pressure_sealevel;temperature;humidity
76726;BME280;65651;53.154;17.916;2023-02-01T00:00:40;99734.55;;;2.33;84.69
76726;BME280;65651;53.154;17.916;2023-02-01T00:03:26;99733.55;;;2.39;84.59
76726;BME280;65651;53.154;17.916;2023-02-01T00:05:57;99738.86;;;2.44;84.37
76726;BME280;65651;53.154;17.916;2023-02-01T00:08:27;99739.17;;;2.47;84.26
76726;BME280;65651;53.154;17.916;2023-02-01T00:11:03;99743.36;;;2.50;84.24
76726;BME280;65651;53.154;17.916;2023-02-01T00:13:34;99745.16;;;2.52;84.25
76726;BME280;65651;53.154;17.916;2023-02-01T00:16:15;99751.41;;;2.53;84.33
76726;BME280;65651;53.154;17.916;2023-02-01T00:18:51;99751.81;;;2.50;84.31
76726;BME280;65651;53.154;17.916;2023-02-01T00:21:21;99751.21;;;2.47;84.23
76726;BME280;65651;53.154;17.916;2023-02-01T00:23:49;99751.77;;;2.47;84.11
76726;BME280;65651;53.154;17.916;2023-02-01T00:26:27;99753.85;;;2.47;84.11
76726;BME280;65651;53.154;17.916;2023-02-01T00:28:57;99749.52;;;2.48;84.01
76726;BME280;65651;53.154;17.916;2023-02-01T00:31:27;99752.76;;;2.49;84.16
76726;BME280;65651;53.154;17.916;2023-02-01T00:33:55;99757.77;;;2.51;84.01
76726;BME280;65651;53.154;17.916;2023-02-01T00:36:22;99758.36;;;2.53;84.05
76726;BME280;65651;53.154;17.916;2023-02-01T00:38:50;99767.20;;;2.55;84.07
76726;BME280;65651;53.154;17.916;2023-02-01T00:41:19;99770.13;;;2.56;83.91
76726;BME280;65651;53.154;17.916;2023-02-01T00:43:50;99769.15;;;2.58;84.11
76726;BME280;65651;53.154;17.916;2023-02-01T00:46:39;99771.48;;;2.60;84.25
76726;BME280;65651;53.154;17.916;2023-02-01T00:49:06;99773.98;;;2.59;84.14
76726;BME280;65651;53.154;17.916;2023-02-01T00:51:36;99768.60;;;2.58;84.18
76726;BME280;65651;53.154;17.916;2023-02-01T00:54:03;99773.27;;;2.55;84.33
76726;BME280;65651;53.154;17.916;2023-02-01T00:56:31;99769.62;;;2.49;84.57
76726;BME280;65651;53.154;17.916;2023-02-01T00:58:58;99774.77;;;2.44;84.62
76726;BME280;65651;53.154;17.916;2023-02-01T01:02:07;99780.98;;;2.37;84.73
76726;BME280;65651;53.154;17.916;2023-02-01T01:04:35;99777.73;;;2.31;85.00
76726;BME280;65651;53.154;17.916;2023-02-01T01:07:05;99773.98;;;2.29;84.98
76726;BME280;65651;53.154;17.916;2023-02-01T01:09:36;99776.09;;;2.27;85.15
76726;BME280;65651;53.154;17.916;2023-02-01T01:12:03;99779.04;;;2.25;85.06
76726;BME280;65651;53.154;17.916;2023-02-01T01:14:32;99783.52;;;2.24;85.07
76726;BME280;65651;53.154;17.916;2023-02-01T01:17:00;99779.83;;;2.24;85.17
76726;BME280;65651;53.154;17.916;2023-02-01T01:19:27;99778.39;;;2.24;85.19
76726;BME280;65651;53.154;17.916;2023-02-01T01:21:54;99771.60;;;2.25;85.26
76726;BME280;65651;53.154;17.916;2023-02-01T01:24:22;99778.09;;;2.26;85.39
76726;BME280;65651;53.154;17.916;2023-02-01T01:26:49;99783.09;;;2.28;85.21
76726;BME280;65651;53.154;17.916;2023-02-01T01:29:16;99781.92;;;2.29;85.34
76726;BME280;65651;53.154;17.916;2023-02-01T01:31:44;99783.95;;;2.33;85.37
76726;BME280;65651;53.154;17.916;2023-02-01T01:34:11;99785.27;;;2.36;85.34
76726;BME280;65651;53.154;17.916;2023-02-01T01:36:38;99778.34;;;2.41;85.45
76726;BME280;65651;53.154;17.916;2023-02-01T01:39:06;99776.48;;;2.45;85.55
76726;BME280;65651;53.154;17.916;2023-02-01T01:41:46;99779.80;;;2.48;85.48
76726;BME280;65651;53.154;17.916;2023-02-01T01:45:04;99782.55;;;2.51;85.62
76726;BME280;65651;53.154;17.916;2023-02-01T01:47:43;99780.48;;;2.55;85.55
76726;BME280;65651;53.154;17.916;2023-02-01T01:50:16;99779.86;;;2.56;85.54
76726;BME280;65651;53.154;17.916;2023-02-01T01:52:49;99775.08;;;2.56;85.53
76726;BME280;65651;53.154;17.916;2023-02-01T01:55:20;99770.84;;;2.56;85.52
76726;BME280;65651;53.154;17.916;2023-02-01T01:58:08;99769.54;;;2.57;85.28
76726;BME280;65651;53.154;17.916;2023-02-01T02:00:45;99767.83;;;2.59;85.02
76726;BME280;65651;53.154;17.916;2023-02-01T02:03:25;99762.20;;;2.60;85.09
76726;BME280;65651;53.154;17.916;2023-02-01T02:05:57;99765.52;;;2.63;85.11
76726;BME280;65651;53.154;17.916;2023-02-01T02:08:27;99762.21;;;2.65;84.82
76726;BME280;65651;53.154;17.916;2023-02-01T02:10:55;99763.33;;;2.66;84.81
76726;BME280;65651;53.154;17.916;2023-02-01T02:13:40;99757.48;;;2.68;84.70
76726;BME280;65651;53.154;17.916;2023-02-01T02:28:04;99764.29;;;2.70;84.32
76726;BME280;65651;53.154;17.916;2023-02-01T02:42:29;99772.29;;;2.72;83.72
76726;BME280;65651;53.154;17.916;2023-02-01T02:45:51;99774.74;;;2.75;83.57
76726;BME280;65651;53.154;17.916;2023-02-01T02:48:47;99773.36;;;2.77;83.58
76726;BME280;65651;53.154;17.916;2023-02-01T02:51:46;99772.91;;;2.78;83.56
76726;BME280;65651;53.154;17.916;2023-02-01T02:54:39;99777.30;;;2.81;83.15
76726;BME280;65651;53.154;17.916;2023-02-01T03:00:14;99773.84;;;2.84;82.75
76726;BME280;65651;53.154;17.916;2023-02-01T03:03:01;99775.86;;;2.86;82.49
76726;BME280;65651;53.154;17.916;2023-02-01T03:05:50;99778.61;;;2.87;82.57
76726;BME280;65651;53.154;17.916;2023-02-01T03:08:22;99777.33;;;2.87;82.52
76726;BME280;65651;53.154;17.916;2023-02-01T03:11:01;99780.46;;;2.88;82.19
76726;BME280;65651;53.154;17.916;2023-02-01T03:13:44;99781.00;;;2.88;82.16
76726;BME280;65651;53.154;17.916;2023-02-01T03:21:55;99779.02;;;2.91;82.20
76726;BME280;65651;53.154;17.916;2023-02-01T03:27:18;99772.92;;;2.94;81.93
76726;BME280;65651;53.154;17.916;2023-02-01T03:32:20;99776.02;;;2.95;81.98
76726;BME280;65651;53.154;17.916;2023-02-01T03:34:48;99771.05;;;2.95;81.87
76726;BME280;65651;53.154;17.916;2023-02-01T03:37:24;99771.38;;;2.96;81.67
76726;BME280;65651;53.154;17.916;2023-02-01T03:40:12;99772.25;;;2.96;81.60
76726;BME280;65651;53.154;17.916;2023-02-01T03:43:15;99769.30;;;2.95;81.63
76726;BME280;65651;53.154;17.916;2023-02-01T03:45:47;99765.76;;;2.95;81.74
76726;BME280;65651;53.154;17.916;2023-02-01T03:48:17;99770.68;;;2.93;81.61
76726;BME280;65651;53.154;17.916;2023-02-01T03:50:49;99771.17;;;2.91;81.71
76726;BME280;65651;53.154;17.916;2023-02-01T03:53:22;99771.66;;;2.94;81.32
76726;BME280;65651;53.154;17.916;2023-02-01T03:55:51;99769.62;;;2.95;81.24
76726;BME280;65651;53.154;17.916;2023-02-01T03:58:22;99767.10;;;2.96;81.16
76726;BME280;65651;53.154;17.916;2023-02-01T04:00:58;99763.61;;;2.95;81.29
76726;BME280;65651;53.154;17.916;2023-02-01T04:03:27;99761.55;;;2.92;81.18
76726;BME280;65651;53.154;17.916;2023-02-01T04:05:55;99761.23;;;2.89;81.38
76726;BME280;65651;53.154;17.916;2023-02-01T04:08:25;99762.86;;;2.89;81.41
76726;BME280;65651;53.154;17.916;2023-02-01T04:10:52;99766.08;;;2.91;81.61
76726;BME280;65651;53.154;17.916;2023-02-01T04:13:20;99774.52;;;2.92;81.54
76726;BME280;65651;53.154;17.916;2023-02-01T04:15:47;99770.73;;;2.90;81.61
76726;BME280;65651;53.154;17.916;2023-02-01T04:18:19;99770.05;;;2.90;81.29
76726;BME280;65651;53.154;17.916;2023-02-01T04:20:47;99760.77;;;2.91;81.42
76726;BME280;65651;53.154;17.916;2023-02-01T04:23:14;99758.11;;;2.91;81.30
76726;BME280;65651;53.154;17.916;2023-02-01T04:25:43;99753.33;;;2.90;81.32
76726;BME280;65651;53.154;17.916;2023-02-01T04:28:10;99758.39;;;2.92;81.40
76726;BME280;65651;53.154;17.916;2023-02-01T04:30:37;99757.39;;;2.93;81.26
76726;BME280;65651;53.154;17.916;2023-02-01T04:33:04;99756.80;;;2.94;81.81
76726;BME280;65651;53.154;17.916;2023-02-01T04:35:32;99757.96;;;2.92;82.21
76726;BME280;65651;53.154;17.916;2023-02-01T04:38:00;99766.02;;;2.89;82.28
76726;BME280;65651;53.154;17.916;2023-02-01T04:40:27;99761.55;;;2.87;82.44
76726;BME280;65651;53.154;17.916;2023-02-01T04:42:55;99758.02;;;2.85;82.30
76726;BME280;65651;53.154;17.916;2023-02-01T04:45:24;99746.02;;;2.82;82.47
76726;BME280;65651;53.154;17.916;2023-02-01T04:48:02;99746.52;;;2.80;82.51
76726;BME280;65651;53.154;17.916;2023-02-01T04:50:40;99749.39;;;2.80;82.22
76726;BME280;65651;53.154;17.916;2023-02-01T04:53:08;99746.41;;;2.81;82.38
76726;BME280;65651;53.154;17.916;2023-02-01T04:56:03;99752.94;;;2.82;82.47
76726;BME280;65651;53.154;17.916;2023-02-01T04:58:30;99762.15;;;2.84;82.27
76726;BME280;65651;53.154;17.916;2023-02-01T05:00:58;99758.17;;;2.87;82.16
76726;BME280;65651;53.154;17.916;2023-02-01T05:03:25;99754.33;;;2.89;82.03
76726;BME280;65651;53.154;17.916;2023-02-01T05:05:52;99756.02;;;2.90;82.02
76726;BME280;65651;53.154;17.916;2023-02-01T05:08:20;99753.20;;;2.92;82.00
76726;BME280;65651;53.154;17.916;2023-02-01T05:10:49;99750.00;;;2.94;81.87
76726;BME280;65651;53.154;17.916;2023-02-01T05:13:16;99753.34;;;2.98;81.94
76726;BME280;65651;53.154;17.916;2023-02-01T05:16:03;99747.19;;;3.01;81.51
76726;BME280;65651;53.154;17.916;2023-02-01T05:18:31;99739.30;;;3.02;81.43
76726;BME280;65651;53.154;17.916;2023-02-01T05:21:01;99736.39;;;3.05;81.13
76726;BME280;65651;53.154;17.916;2023-02-01T05:23:32;99731.38;;;3.06;81.14
76726;BME280;65651;53.154;17.916;2023-02-01T05:26:27;99731.20;;;3.04;81.16
76726;BME280;65651;53.154;17.916;2023-02-01T05:28:55;99729.55;;;3.00;81.19
76726;BME280;65651;53.154;17.916;2023-02-01T05:31:22;99732.38;;;2.95;81.32
76726;BME280;65651;53.154;17.916;2023-02-01T05:33:49;99731.58;;;2.92;81.41
76726;BME280;65651;53.154;17.916;2023-02-01T05:36:20;99727.59;;;2.89;81.24
76726;BME280;65651;53.154;17.916;2023-02-01T05:38:47;99732.10;;;2.86;81.30
76726;BME280;65651;53.154;17.916;2023-02-01T05:41:15;99739.31;;;2.82;81.41
76726;BME280;65651;53.154;17.916;2023-02-01T05:43:42;99744.77;;;2.78;81.53
76726;BME280;65651;53.154;17.916;2023-02-01T05:46:09;99746.02;;;2.73;81.64
76726;BME280;65651;53.154;17.916;2023-02-01T05:48:40;99744.34;;;2.72;81.79
76726;BME280;65651;53.154;17.916;2023-02-01T05:51:09;99737.84;;;2.71;81.94
76726;BME280;65651;53.154;17.916;2023-02-01T05:53:37;99752.96;;;2.70;82.10
76726;BME280;65651;53.154;17.916;2023-02-01T05:56:05;99762.70;;;2.70;82.02
76726;BME280;65651;53.154;17.916;2023-02-01T05:58:33;99761.05;;;2.71;82.04
76726;BME280;65651;53.154;17.916;2023-02-01T06:01:01;99765.38;;;2.75;81.88
76726;BME280;65651;53.154;17.916;2023-02-01T06:03:29;99763.95;;;2.77;82.02
76726;BME280;65651;53.154;17.916;2023-02-01T06:05:56;99762.95;;;2.79;82.02
76726;BME280;65651;53.154;17.916;2023-02-01T06:08:24;99762.33;;;2.80;81.84
76726;BME280;65651;53.154;17.916;2023-02-01T06:11:02;99761.69;;;2.81;81.80
76726;BME280;65651;53.154;17.916;2023-02-01T06:13:34;99759.78;;;2.81;82.03
76726;BME280;65651;53.154;17.916;2023-02-01T06:16:02;99758.80;;;2.77;81.90
76726;BME280;65651;53.154;17.916;2023-02-01T06:18:30;99760.46;;;2.74;81.92
76726;BME280;65651;53.154;17.916;2023-02-01T06:20:59;99756.96;;;2.71;81.97
76726;BME280;65651;53.154;17.916;2023-02-01T06:23:36;99759.70;;;2.68;81.79
76726;BME280;65651;53.154;17.916;2023-02-01T06:26:07;99759.36;;;2.65;81.82
76726;BME280;65651;53.154;17.916;2023-02-01T06:28:39;99763.89;;;2.64;81.83
76726;BME280;65651;53.154;17.916;2023-02-01T06:31:07;99763.69;;;2.62;81.96
76726;BME280;65651;53.154;17.916;2023-02-01T06:33:35;99763.04;;;2.61;81.83
76726;BME280;65651;53.154;17.916;2023-02-01T06:36:07;99762.95;;;2.62;81.74
76726;BME280;65651;53.154;17.916;2023-02-01T06:38:36;99764.10;;;2.63;81.79
76726;BME280;65651;53.154;17.916;2023-02-01T06:41:03;99758.84;;;2.65;81.95
76726;BME280;65651;53.154;17.916;2023-02-01T06:43:31;99758.73;;;2.66;81.93
76726;BME280;65651;53.154;17.916;2023-02-01T06:46:05;99757.35;;;2.68;81.87
76726;BME280;65651;53.154;17.916;2023-02-01T06:48:34;99759.98;;;2.71;81.70
76726;BME280;65651;53.154;17.916;2023-02-01T06:51:01;99758.53;;;2.74;81.49
76726;BME280;65651;53.154;17.916;2023-02-01T06:53:28;99760.77;;;2.77;81.65
76726;BME280;65651;53.154;17.916;2023-02-01T06:56:01;99759.88;;;2.79;81.53
76726;BME280;65651;53.154;17.916;2023-02-01T06:58:33;99761.06;;;2.80;81.48
76726;BME280;65651;53.154;17.916;2023-02-01T07:01:08;99756.96;;;2.83;81.50
76726;BME280;65651;53.154;17.916;2023-02-01T07:03:36;99755.17;;;2.83;81.34
76726;BME280;65651;53.154;17.916;2023-02-01T07:06:04;99758.86;;;2.83;81.39
76726;BME280;65651;53.154;17.916;2023-02-01T07:08:34;99763.83;;;2.83;81.25
76726;BME280;65651;53.154;17.916;2023-02-01T07:11:07;99763.94;;;2.82;81.23
76726;BME280;65651;53.154;17.916;2023-02-01T07:13:35;99766.81;;;2.81;81.01
76726;BME280;65651;53.154;17.916;2023-02-01T07:16:05;99763.31;;;2.81;81.22
76726;BME280;65651;53.154;17.916;2023-02-01T07:18:34;99766.26;;;2.81;80.96
76726;BME280;65651;53.154;17.916;2023-02-01T07:21:04;99765.42;;;2.85;80.99
76726;BME280;65651;53.154;17.916;2023-02-01T07:23:31;99757.73;;;2.93;80.92
76726;BME280;65651;53.154;17.916;2023-02-01T07:26:01;99763.55;;;3.03;80.85
76726;BME280;65651;53.154;17.916;2023-02-01T07:28:31;99766.70;;;3.13;80.52
76726;BME280;65651;53.154;17.916;2023-02-01T07:31:12;99770.51;;;3.23;80.51
76726;BME280;65651;53.154;17.916;2023-02-01T07:33:42;99772.84;;;3.27;80.13
76726;BME280;65651;53.154;17.916;2023-02-01T07:36:15;99770.97;;;3.28;80.22
76726;BME280;65651;53.154;17.916;2023-02-01T07:38:46;99774.80;;;3.27;79.89
76726;BME280;65651;53.154;17.916;2023-02-01T07:41:17;99772.23;;;3.28;79.95
76726;BME280;65651;53.154;17.916;2023-02-01T07:43:45;99777.23;;;3.32;79.96
76726;BME280;65651;53.154;17.916;2023-02-01T07:46:13;99770.17;;;3.40;79.86
76726;BME280;65651;53.154;17.916;2023-02-01T07:48:42;99772.42;;;3.55;79.85
76726;BME280;65651;53.154;17.916;2023-02-01T07:51:11;99770.47;;;3.68;79.52
76726;BME280;65651;53.154;17.916;2023-02-01T07:53:40;99768.70;;;3.77;79.44
76726;BME280;65651;53.154;17.916;2023-02-01T07:56:21;99768.02;;;3.94;79.68
76726;BME280;65651;53.154;17.916;2023-02-01T07:58:53;99768.58;;;4.04;78.96
76726;BME280;65651;53.154;17.916;2023-02-01T08:01:28;99774.20;;;4.05;79.36
76726;BME280;65651;53.154;17.916;2023-02-01T08:03:59;99772.58;;;4.06;79.26
76726;BME280;65651;53.154;17.916;2023-02-01T08:06:29;99778.85;;;4.07;78.98
76726;BME280;65651;53.154;17.916;2023-02-01T08:08:58;99770.98;;;4.05;79.13
76726;BME280;65651;53.154;17.916;2023-02-01T08:11:26;99776.94;;;4.07;78.96
76726;BME280;65651;53.154;17.916;2023-02-01T08:13:54;99776.70;;;4.12;78.88
76726;BME280;65651;53.154;17.916;2023-02-01T08:16:23;99775.21;;;4.17;78.89
76726;BME280;65651;53.154;17.916;2023-02-01T08:18:57;99777.65;;;4.26;78.79
76726;BME280;65651;53.154;17.916;2023-02-01T08:21:28;99784.96;;;4.27;78.57
76726;BME280;65651;53.154;17.916;2023-02-01T08:24:08;99786.59;;;4.27;78.75
76726;BME280;65651;53.154;17.916;2023-02-01T08:26:36;99786.08;;;4.36;78.50
76726;BME280;65651;53.154;17.916;2023-02-01T08:29:05;99786.82;;;4.50;78.50
76726;BME280;65651;53.154;17.916;2023-02-01T08:31:33;99785.98;;;4.52;78.42
76726;BME280;65651;53.154;17.916;2023-02-01T08:34:02;99789.09;;;4.51;78.20
76726;BME280;65651;53.154;17.916;2023-02-01T08:36:32;99787.81;;;4.57;78.38
76726;BME280;65651;53.154;17.916;2023-02-01T08:39:01;99797.25;;;4.64;78.17
76726;BME280;65651;53.154;17.916;2023-02-01T08:41:29;99801.24;;;4.65;78.54
76726;BME280;65651;53.154;17.916;2023-02-01T08:43:57;99808.27;;;4.55;78.26
76726;BME280;65651;53.154;17.916;2023-02-01T08:46:25;99808.75;;;4.47;78.34
76726;BME280;65651;53.154;17.916;2023-02-01T08:48:55;99806.45;;;4.45;78.60
76726;BME280;65651;53.154;17.916;2023-02-01T08:51:23;99807.30;;;4.33;78.47
76726;BME280;65651;53.154;17.916;2023-02-01T08:53:51;99803.91;;;4.24;78.51
76726;BME280;65651;53.154;17.916;2023-02-01T08:56:20;99810.95;;;4.22;78.70
76726;BME280;65651;53.154;17.916;2023-02-01T08:58:48;99811.45;;;4.21;78.84
76726;BME280;65651;53.154;17.916;2023-02-01T09:02:08;99820.84;;;4.13;78.96
76726;BME280;65651;53.154;17.916;2023-02-01T09:04:41;99825.63;;;4.06;79.22
76726;BME280;65651;53.154;17.916;2023-02-01T09:07:10;99824.95;;;4.08;79.39
76726;BME280;65651;53.154;17.916;2023-02-01T09:09:38;99824.52;;;4.02;79.75
76726;BME280;65651;53.154;17.916;2023-02-01T09:12:05;99829.48;;;3.96;79.60
76726;BME280;65651;53.154;17.916;2023-02-01T09:14:33;99824.19;;;3.82;79.88
76726;BME280;65651;53.154;17.916;2023-02-01T09:17:00;99822.55;;;3.69;80.26
76726;BME280;65651;53.154;17.916;2023-02-01T09:19:28;99817.52;;;3.61;79.88
76726;BME280;65651;53.154;17.916;2023-02-01T09:21:55;99816.55;;;3.58;80.29
76726;BME280;65651;53.154;17.916;2023-02-01T09:24:23;99814.67;;;3.52;80.52
76726;BME280;65651;53.154;17.916;2023-02-01T09:26:50;99814.83;;;3.45;80.37
76726;BME280;65651;53.154;17.916;2023-02-01T09:29:18;99813.76;;;3.43;80.58
76726;BME280;65651;53.154;17.916;2023-02-01T09:31:45;99811.16;;;3.42;80.55
76726;BME280;65651;53.154;17.916;2023-02-01T09:34:13;99813.01;;;3.41;80.64
76726;BME280;65651;53.154;17.916;2023-02-01T09:36:40;99806.89;;;3.43;80.90
76726;BME280;65651;53.154;17.916;2023-02-01T09:39:07;99804.36;;;3.48;81.07
76726;BME280;65651;53.154;17.916;2023-02-01T09:41:59;99800.38;;;3.53;80.94
76726;BME280;65651;53.154;17.916;2023-02-01T09:47:20;99788.47;;;3.73;81.02
76726;BME280;65651;53.154;17.916;2023-02-01T09:49:54;99786.17;;;3.89;81.02
76726;BME280;65651;53.154;17.916;2023-02-01T09:52:38;99781.91;;;4.00;80.93
76726;BME280;65651;53.154;17.916;2023-02-01T09:55:18;99780.23;;;4.12;80.49
76726;BME280;65651;53.154;17.916;2023-02-01T09:57:53;99781.93;;;4.23;80.55
76726;BME280;65651;53.154;17.916;2023-02-01T10:00:27;99778.94;;;4.38;80.33
76726;BME280;65651;53.154;17.916;2023-02-01T10:02:56;99776.13;;;4.49;80.34
76726;BME280;65651;53.154;17.916;2023-02-01T10:08:25;99768.14;;;4.74;80.06
76726;BME280;65651;53.154;17.916;2023-02-01T10:15:28;99771.52;;;4.93;79.18
76726;BME280;65651;53.154;17.916;2023-02-01T10:27:28;99762.59;;;5.30;78.41
76726;BME280;65651;53.154;17.916;2023-02-01T10:30:31;99764.71;;;5.24;78.22
76726;BME280;65651;53.154;17.916;2023-02-01T10:33:31;99766.40;;;5.27;78.72
76726;BME280;65651;53.154;17.916;2023-02-01T10:39:38;99773.91;;;5.10;78.16
76726;BME280;65651;53.154;17.916;2023-02-01T10:42:23;99776.41;;;4.92;78.33
76726;BME280;65651;53.154;17.916;2023-02-01T10:44:52;99770.67;;;4.81;78.16
76726;BME280;65651;53.154;17.916;2023-02-01T10:47:29;99769.20;;;4.84;78.48
76726;BME280;65651;53.154;17.916;2023-02-01T10:50:11;99762.16;;;4.83;78.43
76726;BME280;65651;53.154;17.916;2023-02-01T10:52:52;99759.88;;;4.87;78.76
76726;BME280;65651;53.154;17.916;2023-02-01T10:58:00;99754.05;;;5.01;78.12
76726;BME280;65651;53.154;17.916;2023-02-01T11:00:43;99751.02;;;5.01;78.42
76726;BME280;65651;53.154;17.916;2023-02-01T11:05:48;99749.80;;;4.95;77.91
76726;BME280;65651;53.154;17.916;2023-02-01T11:08:17;99747.58;;;4.92;77.98
76726;BME280;65651;53.154;17.916;2023-02-01T11:11:01;99748.91;;;4.84;78.19
76726;BME280;65651;53.154;17.916;2023-02-01T11:13:37;99743.58;;;4.87;78.41
76726;BME280;65651;53.154;17.916;2023-02-01T11:16:20;99739.63;;;4.79;78.28
76726;BME280;65651;53.154;17.916;2023-02-01T11:19:23;99740.71;;;4.72;78.26
76726;BME280;65651;53.154;17.916;2023-02-01T11:23:03;99736.42;;;4.70;78.31
76726;BME280;65651;53.154;17.916;2023-02-01T11:26:40;99733.63;;;4.78;78.49
76726;BME280;65651;53.154;17.916;2023-02-01T11:30:18;99728.08;;;4.89;78.32
76726;BME280;65651;53.154;17.916;2023-02-01T11:43:29;99728.54;;;5.27;77.76
76726;BME280;65651;53.154;17.916;2023-02-01T11:46:00;99731.92;;;5.43;77.69
76726;BME280;65651;53.154;17.916;2023-02-01T11:48:34;99730.66;;;5.49;77.26
76726;BME280;65651;53.154;17.916;2023-02-01T11:51:26;99729.67;;;5.50;77.03
76726;BME280;65651;53.154;17.916;2023-02-01T12:06:46;99714.34;;;6.04;76.02
76726;BME280;65651;53.154;17.916;2023-02-01T12:09:33;99719.94;;;6.07;75.60
76726;BME280;65651;53.154;17.916;2023-02-01T12:38:53;99706.62;;;5.15;76.28
76726;BME280;65651;53.154;17.916;2023-02-01T12:46:46;99705.86;;;4.89;76.81
76726;BME280;65651;53.154;17.916;2023-02-01T12:52:17;99708.42;;;4.80;77.03
76726;BME280;65651;53.154;17.916;2023-02-01T12:54:58;99711.90;;;4.76;77.13
76726;BME280;65651;53.154;17.916;2023-02-01T12:57:31;99706.83;;;4.76;77.27
76726;BME280;65651;53.154;17.916;2023-02-01T13:02:37;99708.44;;;4.84;77.14
76726;BME280;65651;53.154;17.916;2023-02-01T13:05:20;99715.30;;;4.84;77.35
76726;BME280;65651;53.154;17.916;2023-02-01T13:07:59;99713.77;;;4.83;77.34
76726;BME280;65651;53.154;17.916;2023-02-01T13:10:36;99715.62;;;4.81;76.86
76726;BME280;65651;53.154;17.916;2023-02-01T13:16:16;99712.70;;;4.73;77.08
76726;BME280;65651;53.154;17.916;2023-02-01T13:18:50;99714.52;;;4.65;77.19
76726;BME280;65651;53.154;17.916;2023-02-01T13:21:29;99720.79;;;4.66;77.05
76726;BME280;65651;53.154;17.916;2023-02-01T13:23:58;99721.84;;;4.64;77.19
76726;BME280;65651;53.154;17.916;2023-02-01T13:26:26;99726.44;;;4.63;77.22
76726;BME280;65651;53.154;17.916;2023-02-01T13:29:06;99722.64;;;4.63;76.99
76726;BME280;65651;53.154;17.916;2023-02-01T13:31:51;99731.47;;;4.66;77.07
76726;BME280;65651;53.154;17.916;2023-02-01T13:42:49;99719.27;;;4.63;77.12
76726;BME280;65651;53.154;17.916;2023-02-01T13:45:21;99721.10;;;4.60;76.64
76726;BME280;65651;53.154;17.916;2023-02-01T13:47:52;99717.07;;;4.59;76.87
76726;BME280;65651;53.154;17.916;2023-02-01T13:52:59;99726.94;;;4.61;76.70
76726;BME280;65651;53.154;17.916;2023-02-01T13:55:36;99729.89;;;4.62;76.74
76726;BME280;65651;53.154;17.916;2023-02-01T13:58:18;99735.05;;;4.57;76.92
76726;BME280;65651;53.154;17.916;2023-02-01T14:00:50;99738.98;;;4.53;77.36
76726;BME280;65651;53.154;17.916;2023-02-01T14:03:54;99739.21;;;4.52;77.29
76726;BME280;65651;53.154;17.916;2023-02-01T14:11:54;99732.23;;;4.42;77.29
76726;BME280;65651;53.154;17.916;2023-02-01T14:19:24;99728.20;;;4.39;77.32
76726;BME280;65651;53.154;17.916;2023-02-01T14:21:54;99726.83;;;4.39;77.35
76726;BME280;65651;53.154;17.916;2023-02-01T14:27:06;99735.16;;;4.35;77.44
76726;BME280;65651;53.154;17.916;2023-02-01T14:30:00;99731.75;;;4.35;77.01
76726;BME280;65651;53.154;17.916;2023-02-01T14:32:37;99738.98;;;4.36;77.34
76726;BME280;65651;53.154;17.916;2023-02-01T14:35:08;99742.16;;;4.34;77.09
76726;BME280;65651;53.154;17.916;2023-02-01T14:37:49;99735.92;;;4.32;77.10
76726;BME280;65651;53.154;17.916;2023-02-01T14:40:26;99729.41;;;4.29;76.85
76726;BME280;65651;53.154;17.916;2023-02-01T14:42:55;99735.06;;;4.27;76.92
76726;BME280;65651;53.154;17.916;2023-02-01T14:50:44;99735.48;;;4.25;76.88
76726;BME280;65651;53.154;17.916;2023-02-01T14:53:20;99735.46;;;4.22;77.28
76726;BME280;65651;53.154;17.916;2023-02-01T14:56:07;99735.73;;;4.21;77.18
76726;BME280;65651;53.154;17.916;2023-02-01T14:59:06;99733.60;;;4.21;76.85
76726;BME280;65651;53.154;17.916;2023-02-01T15:01:39;99733.50;;;4.18;76.82
76726;BME280;65651;53.154;17.916;2023-02-01T15:04:17;99730.81;;;4.17;77.19
76726;BME280;65651;53.154;17.916;2023-02-01T15:09:53;99741.28;;;4.13;76.94
76726;BME280;65651;53.154;17.916;2023-02-01T15:12:27;99739.30;;;4.09;76.82
76726;BME280;65651;53.154;17.916;2023-02-01T15:17:41;99744.57;;;4.07;77.56
76726;BME280;65651;53.154;17.916;2023-02-01T15:20:19;99737.23;;;4.05;77.41
76726;BME280;65651;53.154;17.916;2023-02-01T15:25:32;99744.45;;;4.02;77.56
76726;BME280;65651;53.154;17.916;2023-02-01T15:28:02;99746.25;;;4.02;77.62
76726;BME280;65651;53.154;17.916;2023-02-01T15:30:32;99746.96;;;3.99;77.40
76726;BME280;65651;53.154;17.916;2023-02-01T15:33:16;99745.25;;;3.94;77.82
76726;BME280;65651;53.154;17.916;2023-02-01T15:35:55;99745.34;;;3.89;77.58
76726;BME280;65651;53.154;17.916;2023-02-01T15:41:28;99749.50;;;3.79;78.04
76726;BME280;65651;53.154;17.916;2023-02-01T15:46:44;99760.34;;;3.64;78.19
76726;BME280;65651;53.154;17.916;2023-02-01T15:49:37;99760.90;;;3.59;78.10
76726;BME280;65651;53.154;17.916;2023-02-01T15:54:53;99764.83;;;3.47;78.62
76726;BME280;65651;53.154;17.916;2023-02-01T15:57:30;99767.98;;;3.41;78.39
76726;BME280;65651;53.154;17.916;2023-02-01T16:00:04;99769.92;;;3.37;78.73
76726;BME280;65651;53.154;17.916;2023-02-01T16:02:53;99770.97;;;3.35;78.95
76726;BME280;65651;53.154;17.916;2023-02-01T16:08:06;99773.25;;;3.33;79.12
76726;BME280;65651;53.154;17.916;2023-02-01T16:10:47;99774.70;;;3.33;79.06
76726;BME280;65651;53.154;17.916;2023-02-01T16:13:19;99774.23;;;3.32;79.04
76726;BME280;65651;53.154;17.916;2023-02-01T16:15:58;99776.38;;;3.32;79.18
76726;BME280;65651;53.154;17.916;2023-02-01T16:18:29;99774.36;;;3.30;79.09
76726;BME280;65651;53.154;17.916;2023-02-01T16:21:00;99778.09;;;3.30;79.16
76726;BME280;65651;53.154;17.916;2023-02-01T16:23:32;99775.70;;;3.29;79.16
76726;BME280;65651;53.154;17.916;2023-02-01T16:25:59;99777.30;;;3.29;79.18
76726;BME280;65651;53.154;17.916;2023-02-01T16:28:29;99777.98;;;3.29;79.18
76726;BME280;65651;53.154;17.916;2023-02-01T16:30:57;99780.20;;;3.30;79.12
76726;BME280;65651;53.154;17.916;2023-02-01T16:33:25;99778.15;;;3.29;79.48
76726;BME280;65651;53.154;17.916;2023-02-01T16:35:56;99776.86;;;3.30;79.21